createdAt,value
2019-05-26T00:00:43.069Z,9.81
2019-05-26T00:01:43.035Z,9.90
2019-05-26T00:02:43.019Z,9.76
2019-05-26T00:03:43.006Z,9.87
2019-05-26T00:04:42.985Z,9.80
2019-05-26T00:05:42.973Z,9.91
2019-05-26T00:06:42.957Z,9.87
2019-05-26T00:07:42.942Z,9.91
2019-05-26T00:08:42.920Z,9.90
2019-05-26T00:09:42.904Z,9.92
2019-05-26T00:10:42.891Z,10.00
2019-05-26T00:11:42.876Z,9.95
2019-05-26T00:12:42.859Z,10.03
2019-05-26T00:13:42.847Z,10.06
2019-05-26T00:14:42.851Z,10.05
2019-05-26T00:15:42.830Z,10.07
2019-05-26T00:16:42.791Z,10.17
2019-05-26T00:17:42.773Z,10.15
2019-05-26T00:18:42.779Z,10.25
2019-05-26T00:19:42.750Z,10.23
2019-05-26T00:20:42.729Z,10.18
2019-05-26T00:21:42.724Z,10.28
2019-05-26T00:22:42.706Z,10.28
2019-05-26T00:23:42.676Z,10.36
2019-05-26T00:24:42.661Z,10.30
2019-05-26T00:25:42.646Z,10.46
2019-05-26T00:26:42.638Z,10.46
2019-05-26T00:27:42.628Z,10.46
2019-05-26T00:28:42.610Z,10.43
2019-05-26T00:29:42.598Z,10.46
2019-05-26T00:30:42.578Z,10.49
2019-05-26T00:31:42.558Z,10.53
2019-05-26T00:32:42.684Z,10.58
2019-05-26T00:33:42.525Z,10.59
2019-05-26T00:34:42.581Z,10.71
2019-05-26T00:35:42.488Z,10.69
2019-05-26T00:36:42.473Z,10.69
2019-05-26T00:37:50.744Z,10.71
2019-05-26T00:38:42.442Z,10.76
2019-05-26T00:39:42.432Z,10.77
2019-05-26T00:40:42.417Z,10.79
2019-05-26T00:41:42.500Z,10.71
2019-05-26T00:42:42.378Z,10.77
2019-05-26T00:43:42.365Z,10.80
2019-05-26T00:44:42.350Z,10.82
2019-05-26T00:45:42.339Z,10.79
2019-05-26T00:46:42.320Z,10.83
2019-05-26T00:47:42.301Z,10.77
2019-05-26T00:48:42.286Z,10.76
2019-05-26T00:49:42.271Z,10.82
2019-05-26T00:50:42.281Z,10.84
2019-05-26T00:51:42.233Z,10.90
2019-05-26T00:52:42.224Z,10.87
2019-05-26T00:53:42.203Z,10.86
2019-05-26T00:54:42.198Z,10.90
2019-05-26T00:55:42.177Z,11.01
2019-05-26T00:56:42.158Z,10.94
2019-05-26T00:57:42.149Z,10.87
2019-05-26T00:58:42.125Z,10.89
2019-05-26T00:59:42.133Z,10.89
2019-05-26T01:00:42.097Z,10.86
2019-05-26T01:01:42.130Z,10.87
2019-05-26T01:02:42.069Z,10.87
2019-05-26T01:03:42.049Z,10.84
2019-05-26T01:04:42.097Z,10.84
2019-05-26T01:05:42.035Z,10.80
2019-05-26T01:06:42.007Z,10.83
2019-05-26T01:07:41.994Z,10.80
2019-05-26T01:08:41.976Z,10.69
2019-05-26T01:09:41.962Z,10.68
2019-05-26T01:10:41.938Z,10.71
2019-05-26T01:11:41.922Z,10.69
2019-05-26T01:12:41.906Z,10.65
2019-05-26T01:13:41.894Z,10.69
2019-05-26T01:14:41.883Z,10.57
2019-05-26T01:15:41.863Z,10.59
2019-05-26T01:16:41.856Z,10.55
2019-05-26T01:17:41.832Z,10.51
2019-05-26T01:18:41.815Z,10.57
2019-05-26T01:19:41.798Z,10.53
2019-05-26T01:20:41.807Z,10.46
2019-05-26T01:21:41.770Z,10.43
2019-05-26T01:22:41.753Z,10.46
2019-05-26T01:23:41.751Z,10.41
2019-05-26T01:24:41.721Z,10.34
2019-05-26T01:25:41.705Z,10.34
2019-05-26T01:26:41.691Z,10.30
2019-05-26T01:27:41.680Z,10.21
2019-05-26T01:28:41.655Z,10.21
2019-05-26T01:29:41.647Z,10.27
2019-05-26T01:30:41.627Z,10.28
2019-05-26T01:31:41.617Z,10.18
2019-05-26T01:32:41.591Z,10.15
2019-05-26T01:33:41.681Z,10.06
2019-05-26T01:34:41.560Z,10.06
2019-05-26T01:35:41.546Z,10.03
2019-05-26T01:36:41.535Z,10.06
2019-05-26T01:37:41.515Z,10.00
2019-05-26T01:38:41.499Z,9.90
2019-05-26T01:39:41.482Z,9.90
2019-05-26T01:40:41.467Z,9.87
2019-05-26T01:41:41.454Z,9.84
2019-05-26T01:42:41.429Z,9.82
2019-05-26T01:43:41.418Z,9.80
2019-05-26T01:44:41.399Z,9.67
2019-05-26T01:45:41.384Z,9.69
2019-05-26T01:46:41.369Z,9.72
2019-05-26T01:47:41.369Z,9.73
2019-05-26T01:48:41.356Z,9.74
2019-05-26T01:49:41.320Z,9.70
2019-05-26T01:50:41.305Z,9.63
2019-05-26T01:51:41.289Z,9.62
2019-05-26T01:52:41.277Z,9.54
2019-05-26T01:53:41.256Z,9.54
2019-05-26T01:54:41.273Z,9.54
2019-05-26T01:55:41.243Z,9.47
2019-05-26T01:56:41.206Z,9.44
2019-05-26T01:57:41.195Z,9.31
2019-05-26T01:58:41.173Z,9.36
2019-05-26T01:59:41.162Z,9.34
2019-05-26T02:00:41.141Z,9.27
2019-05-26T02:01:41.123Z,9.19
2019-05-26T02:02:41.105Z,9.24
2019-05-26T02:03:41.101Z,9.21
2019-05-26T02:04:41.079Z,9.13
2019-05-26T02:05:41.062Z,9.11
2019-05-26T02:06:41.061Z,9.00
2019-05-26T02:07:41.021Z,9.03
2019-05-26T02:08:41.014Z,8.95
2019-05-26T02:09:40.992Z,8.99
2019-05-26T02:10:40.987Z,8.92
2019-05-26T02:11:40.961Z,8.90
2019-05-26T02:12:40.960Z,8.90
2019-05-26T02:13:40.927Z,8.89
2019-05-26T02:14:40.914Z,8.81
2019-05-26T02:15:40.894Z,8.82
2019-05-26T02:16:40.875Z,8.74
2019-05-26T02:17:40.862Z,8.78
2019-05-26T02:18:40.850Z,8.75
2019-05-26T02:19:40.831Z,8.81
2019-05-26T02:20:40.811Z,8.78
2019-05-26T02:21:40.793Z,8.69
2019-05-26T02:22:40.801Z,8.69
2019-05-26T02:23:40.762Z,8.68
2019-05-26T02:24:40.743Z,8.66
2019-05-26T02:25:40.735Z,8.61
2019-05-26T02:26:40.725Z,8.57
2019-05-26T02:27:40.697Z,8.60
2019-05-26T02:28:40.674Z,8.57
2019-05-26T02:29:40.663Z,8.59
2019-05-26T02:30:40.654Z,8.60
2019-05-26T02:31:40.640Z,8.56
2019-05-26T02:32:40.616Z,8.56
2019-05-26T02:33:40.596Z,8.50
2019-05-26T02:34:40.578Z,8.52
2019-05-26T02:35:40.638Z,8.60
2019-05-26T02:36:40.548Z,8.50
2019-05-26T02:37:40.530Z,8.54
2019-05-26T02:38:59.913Z,8.45
2019-05-26T02:39:40.498Z,8.46
2019-05-26T02:40:40.486Z,8.50
2019-05-26T02:41:40.474Z,8.49
2019-05-26T02:42:40.474Z,8.49
2019-05-26T02:43:40.433Z,8.44
2019-05-26T02:44:40.416Z,8.46
2019-05-26T02:45:40.393Z,8.45
2019-05-26T02:46:40.378Z,8.35
2019-05-26T02:47:40.359Z,8.42
2019-05-26T02:48:40.358Z,8.36
2019-05-26T02:49:40.347Z,8.39
2019-05-26T02:50:40.380Z,8.44
2019-05-26T02:51:40.302Z,8.42
2019-05-26T02:52:40.290Z,8.35
2019-05-26T02:53:40.263Z,8.27
2019-05-26T02:54:40.252Z,8.34
2019-05-26T02:55:40.248Z,8.32
2019-05-26T02:56:40.227Z,8.34
2019-05-26T02:57:40.199Z,8.28
2019-05-26T02:58:40.182Z,8.32
2019-05-26T02:59:40.174Z,8.34
2019-05-26T03:00:40.168Z,8.28
2019-05-26T03:01:58.199Z,8.35
2019-05-26T03:02:40.113Z,8.31
2019-05-26T03:03:40.091Z,8.32
2019-05-26T03:04:40.081Z,8.28
2019-05-26T03:05:40.071Z,8.31
2019-05-26T03:06:40.045Z,8.27
2019-05-26T03:07:40.028Z,8.31
2019-05-26T03:08:40.006Z,8.21
2019-05-26T03:09:39.996Z,8.23
2019-05-26T03:10:39.977Z,8.28
2019-05-26T03:11:39.986Z,8.27
2019-05-26T03:12:39.943Z,8.23
2019-05-26T03:13:39.938Z,8.20
2019-05-26T03:14:39.922Z,8.20
2019-05-26T03:15:39.909Z,8.18
2019-05-26T03:16:39.891Z,8.21
2019-05-26T03:17:39.863Z,8.17
2019-05-26T03:18:39.845Z,8.16
2019-05-26T03:19:39.825Z,8.13
2019-05-26T03:20:39.808Z,8.18
2019-05-26T03:21:39.788Z,8.11
2019-05-26T03:22:39.779Z,8.13
2019-05-26T03:23:39.760Z,8.17
2019-05-26T03:24:39.739Z,8.14
2019-05-26T03:25:39.729Z,8.16
2019-05-26T03:26:39.701Z,8.11
2019-05-26T03:27:39.688Z,8.17
2019-05-26T03:28:39.671Z,8.13
2019-05-26T03:29:39.664Z,8.21
2019-05-26T03:30:39.675Z,8.11
2019-05-26T03:31:39.666Z,8.16
2019-05-26T03:32:39.730Z,8.11
2019-05-26T03:33:39.594Z,8.18
2019-05-26T03:34:39.576Z,8.16
2019-05-26T03:35:39.569Z,8.18
2019-05-26T03:36:39.551Z,8.21
2019-05-26T03:37:39.538Z,8.14
2019-05-26T03:38:39.510Z,8.14
2019-05-26T03:39:45.143Z,8.21
2019-05-26T03:40:39.470Z,8.13
2019-05-26T03:41:39.454Z,8.17
2019-05-26T03:42:39.449Z,8.11
2019-05-26T03:43:39.423Z,8.14
2019-05-26T03:44:39.425Z,8.18
2019-05-26T03:45:39.392Z,8.20
2019-05-26T03:46:39.377Z,8.13
2019-05-26T03:47:39.365Z,8.13
2019-05-26T03:48:39.341Z,8.18
2019-05-26T03:49:39.315Z,8.16
2019-05-26T03:50:39.303Z,8.17
2019-05-26T03:51:39.286Z,8.17
2019-05-26T03:52:39.294Z,8.23
2019-05-26T03:53:39.277Z,8.18
2019-05-26T03:54:39.243Z,8.27
2019-05-26T03:55:39.221Z,8.21
2019-05-26T03:56:39.211Z,8.20
2019-05-26T03:57:39.188Z,8.21
2019-05-26T03:58:39.181Z,8.20
2019-05-26T03:59:39.152Z,8.24
2019-05-26T04:00:39.135Z,8.28
2019-05-26T04:01:39.134Z,8.23
2019-05-26T04:02:39.137Z,8.28
2019-05-26T04:03:39.101Z,8.21
2019-05-26T04:04:39.070Z,8.26
2019-05-26T04:05:39.054Z,8.26
2019-05-26T04:06:39.029Z,8.21
2019-05-26T04:07:39.019Z,8.27
2019-05-26T04:08:39.000Z,8.27
2019-05-26T04:09:38.985Z,8.32
2019-05-26T04:10:38.966Z,8.28
2019-05-26T04:11:38.946Z,8.34
2019-05-26T04:12:38.947Z,8.26
2019-05-26T04:13:38.913Z,8.35
2019-05-26T04:14:38.894Z,8.31
2019-05-26T04:15:38.884Z,8.38
2019-05-26T04:16:38.864Z,8.41
2019-05-26T04:17:38.859Z,8.41
2019-05-26T04:18:38.842Z,8.49
2019-05-26T04:19:38.809Z,8.54
2019-05-26T04:20:38.816Z,8.54
2019-05-26T04:21:38.802Z,8.56
2019-05-26T04:22:38.768Z,8.56
2019-05-26T04:23:38.746Z,8.69
2019-05-26T04:24:38.729Z,8.74
2019-05-26T04:25:38.714Z,8.78
2019-05-26T04:26:38.709Z,8.78
2019-05-26T04:27:38.679Z,8.84
2019-05-26T04:28:38.670Z,8.89
2019-05-26T04:29:38.646Z,8.93
2019-05-26T04:30:38.637Z,8.86
2019-05-26T04:31:38.615Z,8.90
2019-05-26T04:32:38.598Z,8.97
2019-05-26T04:33:38.582Z,9.05
2019-05-26T04:34:38.559Z,9.11
2019-05-26T04:35:38.551Z,9.13
2019-05-26T04:36:38.534Z,9.16
2019-05-26T04:37:38.517Z,9.19
2019-05-26T04:38:38.501Z,9.29
2019-05-26T04:39:38.483Z,9.31
2019-05-26T04:40:38.482Z,9.34
2019-05-26T04:41:38.450Z,9.40
2019-05-26T04:42:38.434Z,9.55
2019-05-26T04:43:38.419Z,9.58
2019-05-26T04:44:38.402Z,9.55
2019-05-26T04:45:38.388Z,9.64
2019-05-26T04:46:38.364Z,9.74
2019-05-26T04:47:38.367Z,9.73
2019-05-26T04:48:38.338Z,9.90
2019-05-26T04:49:38.320Z,9.85
2019-05-26T04:50:38.306Z,9.85
2019-05-26T04:51:38.290Z,9.92
2019-05-26T04:52:38.275Z,10.00
2019-05-26T04:53:38.258Z,9.95
2019-05-26T04:54:38.270Z,10.02
2019-05-26T04:55:38.244Z,10.09
2019-05-26T04:56:38.211Z,10.17
2019-05-26T04:57:38.194Z,10.12
2019-05-26T04:58:38.179Z,10.31
2019-05-26T04:59:38.170Z,10.34
2019-05-26T05:00:38.153Z,10.34
2019-05-26T05:01:38.131Z,10.49
2019-05-26T05:02:38.115Z,10.46
2019-05-26T05:03:38.100Z,10.55
2019-05-26T05:04:38.076Z,10.51
2019-05-26T05:05:38.062Z,10.65
2019-05-26T05:06:38.050Z,10.76
2019-05-26T05:07:38.057Z,10.72
2019-05-26T05:08:38.038Z,10.80
2019-05-26T05:09:38.024Z,10.89
2019-05-26T05:10:42.389Z,10.89
2019-05-26T05:11:37.977Z,11.00
2019-05-26T05:12:38.033Z,11.02
2019-05-26T05:13:37.957Z,11.12
2019-05-26T05:14:37.924Z,11.19
2019-05-26T05:15:37.931Z,11.25
2019-05-26T05:16:37.895Z,11.31
2019-05-26T05:17:37.886Z,11.45
2019-05-26T05:18:37.884Z,11.51
2019-05-26T05:19:37.871Z,11.44
2019-05-26T05:20:37.853Z,11.55
2019-05-26T05:21:37.823Z,11.63
2019-05-26T05:22:37.806Z,11.78
2019-05-26T05:23:37.789Z,11.86
2019-05-26T05:24:37.779Z,11.88
2019-05-26T05:25:37.768Z,12.02
2019-05-26T05:26:37.763Z,12.11
2019-05-26T05:27:37.751Z,12.23
2019-05-26T05:28:37.723Z,12.28
2019-05-26T05:29:37.711Z,12.39
2019-05-26T05:30:37.714Z,12.37
2019-05-26T05:31:37.673Z,12.48
2019-05-26T05:32:37.660Z,12.63
2019-05-26T05:33:37.644Z,12.63
2019-05-26T05:34:37.654Z,12.69
2019-05-26T05:35:37.612Z,12.78
2019-05-26T05:36:37.597Z,12.95
2019-05-26T05:37:37.585Z,12.90
2019-05-26T05:38:37.565Z,13.08
2019-05-26T05:39:37.569Z,13.17
2019-05-26T05:40:37.572Z,13.19
2019-05-26T05:41:37.531Z,13.33
2019-05-26T05:42:37.517Z,13.37
2019-05-26T05:43:37.502Z,13.46
2019-05-26T05:44:37.482Z,13.43
2019-05-26T05:45:37.478Z,13.54
2019-05-26T05:46:37.462Z,13.61
2019-05-26T05:47:37.438Z,13.68
2019-05-26T05:48:37.429Z,13.70
2019-05-26T05:49:37.412Z,13.73
2019-05-26T05:50:39.333Z,13.91
2019-05-26T05:51:37.382Z,13.97
2019-05-26T05:52:37.383Z,13.97
2019-05-26T05:53:37.366Z,14.03
2019-05-26T05:54:37.346Z,14.13
2019-05-26T05:55:37.328Z,14.13
2019-05-26T05:56:37.330Z,14.22
2019-05-26T05:57:37.319Z,14.20
2019-05-26T05:58:37.289Z,14.26
2019-05-26T05:59:37.279Z,14.34
2019-05-26T06:00:37.257Z,14.31
2019-05-26T06:01:37.246Z,14.33
2019-05-26T06:02:37.236Z,14.52
2019-05-26T06:03:37.218Z,14.52
2019-05-26T06:04:37.203Z,14.49
2019-05-26T06:05:37.194Z,14.51
2019-05-26T06:06:37.182Z,14.63
2019-05-26T06:07:37.168Z,14.70
2019-05-26T06:08:37.146Z,14.70
2019-05-26T06:09:37.138Z,14.77
2019-05-26T06:10:37.136Z,14.81
2019-05-26T06:11:37.108Z,14.77
2019-05-26T06:12:37.103Z,14.90
2019-05-26T06:13:37.105Z,14.87
2019-05-26T06:14:37.072Z,14.94
2019-05-26T06:15:37.050Z,15.02
2019-05-26T06:16:37.042Z,15.00
2019-05-26T06:17:37.093Z,15.04
2019-05-26T06:18:37.018Z,15.14
2019-05-26T06:19:37.007Z,15.15
2019-05-26T06:20:37.011Z,15.29
2019-05-26T06:21:36.979Z,15.33
2019-05-26T06:22:36.984Z,15.43
2019-05-26T06:23:37.285Z,15.44
2019-05-26T06:24:36.944Z,15.47
2019-05-26T06:25:36.926Z,15.62
2019-05-26T06:26:36.916Z,15.54
2019-05-26T06:27:36.900Z,15.63
2019-05-26T06:28:36.889Z,15.66
2019-05-26T06:29:36.878Z,15.70
2019-05-26T06:30:36.864Z,15.70
2019-05-26T06:31:36.929Z,15.73
2019-05-26T06:32:36.830Z,15.84
2019-05-26T06:33:36.826Z,15.88
2019-05-26T06:34:36.810Z,15.90
2019-05-26T06:35:36.799Z,15.99
2019-05-26T06:36:36.786Z,16.08
2019-05-26T06:37:36.770Z,16.10
2019-05-26T06:38:36.786Z,16.16
2019-05-26T06:39:36.776Z,16.24
2019-05-26T06:40:36.751Z,16.32
2019-05-26T06:41:36.738Z,16.26
2019-05-26T06:42:36.707Z,16.41
2019-05-26T06:43:36.717Z,16.54
2019-05-26T06:44:52.583Z,16.47
2019-05-26T06:45:36.748Z,16.49
2019-05-26T06:46:36.657Z,16.58
2019-05-26T06:47:36.662Z,16.61
2019-05-26T06:48:36.637Z,16.69
2019-05-26T06:49:36.693Z,16.77
2019-05-26T06:50:36.611Z,16.64
2019-05-26T06:51:36.604Z,16.82
2019-05-26T06:52:36.592Z,16.86
2019-05-26T06:53:37.654Z,16.84
2019-05-26T06:54:36.569Z,16.82
2019-05-26T06:55:36.561Z,16.86
2019-05-26T06:56:36.554Z,16.95
2019-05-26T06:57:36.545Z,17.04
2019-05-26T06:58:36.519Z,16.98
2019-05-26T06:59:36.521Z,17.10
2019-05-26T07:00:36.498Z,17.05
2019-05-26T07:01:36.489Z,17.14
2019-05-26T07:02:36.490Z,17.20
2019-05-26T07:03:36.462Z,17.20
2019-05-26T07:04:36.447Z,17.24
2019-05-26T07:05:36.451Z,17.19
2019-05-26T07:06:36.427Z,17.30
2019-05-26T07:07:36.412Z,17.31
2019-05-26T07:08:36.431Z,17.41
2019-05-26T07:09:36.392Z,17.49
2019-05-26T07:10:36.380Z,17.59
2019-05-26T07:11:50.471Z,17.63
2019-05-26T07:12:36.362Z,17.63
2019-05-26T07:13:36.400Z,17.59
2019-05-26T07:14:36.335Z,17.66
2019-05-26T07:15:36.327Z,17.76
2019-05-26T07:16:38.398Z,17.86
2019-05-26T07:17:36.309Z,17.86
2019-05-26T07:18:36.295Z,17.88
2019-05-26T07:19:36.285Z,18.08
2019-05-26T07:20:36.289Z,18.08
2019-05-26T07:21:36.270Z,18.05
2019-05-26T07:22:36.250Z,18.00
2019-05-26T07:23:36.240Z,18.06
2019-05-26T07:24:36.233Z,18.11
2019-05-26T07:25:36.222Z,18.09
2019-05-26T07:26:36.242Z,18.26
2019-05-26T07:27:36.198Z,18.27
2019-05-26T07:28:36.207Z,18.31
2019-05-26T07:29:36.176Z,18.39
2019-05-26T07:30:36.236Z,18.51
2019-05-26T07:31:36.164Z,18.73
2019-05-26T07:32:36.144Z,18.74
2019-05-26T07:33:36.159Z,18.78
2019-05-26T07:34:36.141Z,18.76
2019-05-26T07:35:36.121Z,18.81
2019-05-26T07:36:36.109Z,18.88
2019-05-26T07:37:36.179Z,18.85
2019-05-26T07:38:36.087Z,18.98
2019-05-26T07:39:36.082Z,19.00
2019-05-26T07:40:36.074Z,19.12
2019-05-26T07:41:36.076Z,19.32
2019-05-26T07:42:36.055Z,19.41
2019-05-26T07:43:36.048Z,19.32
2019-05-26T07:44:36.037Z,19.34
2019-05-26T07:45:36.030Z,19.47
2019-05-26T07:46:36.021Z,19.59
2019-05-26T07:47:36.020Z,19.57
2019-05-26T07:48:36.373Z,19.67
2019-05-26T07:49:36.009Z,19.77
2019-05-26T07:50:35.991Z,19.99
2019-05-26T07:51:35.977Z,20.15
2019-05-26T07:52:36.000Z,20.18
2019-05-26T07:53:35.966Z,20.29
2019-05-26T07:54:35.967Z,20.30
2019-05-26T07:55:35.940Z,20.36
2019-05-26T07:56:35.943Z,20.52
2019-05-26T07:57:35.923Z,20.58
2019-05-26T07:58:35.921Z,20.66
2019-05-26T07:59:35.911Z,20.56
2019-05-26T08:00:35.974Z,20.58
2019-05-26T08:01:36.621Z,20.71
2019-05-26T08:02:35.889Z,20.74
2019-05-26T08:03:36.271Z,20.73
2019-05-26T08:04:35.873Z,20.82
2019-05-26T08:05:35.863Z,20.86
2019-05-26T08:06:35.858Z,21.03
2019-05-26T08:07:35.885Z,21.25
2019-05-26T08:08:35.876Z,21.44
2019-05-26T08:09:35.835Z,21.54
2019-05-26T08:10:35.826Z,21.68
2019-05-26T08:11:35.821Z,21.75
2019-05-26T08:12:35.816Z,21.96
2019-05-26T08:13:35.811Z,21.99
2019-05-26T08:14:35.805Z,22.04
2019-05-26T08:15:35.805Z,22.26
2019-05-26T08:16:35.799Z,22.41
2019-05-26T08:17:35.792Z,22.44
2019-05-26T08:18:35.775Z,22.46
2019-05-26T08:19:35.778Z,22.59
2019-05-26T08:20:35.788Z,22.74
2019-05-26T08:21:35.773Z,22.83
2019-05-26T08:22:35.758Z,22.81
2019-05-26T08:23:35.762Z,22.88
2019-05-26T08:24:35.762Z,22.96
2019-05-26T08:25:35.757Z,23.07
2019-05-26T08:26:35.740Z,22.99
2019-05-26T08:27:35.750Z,22.99
2019-05-26T08:28:35.719Z,23.08
2019-05-26T08:29:35.716Z,23.16
2019-05-26T08:30:35.709Z,23.28
2019-05-26T08:31:35.714Z,23.36
2019-05-26T08:32:35.706Z,23.33
2019-05-26T08:33:35.703Z,23.32
2019-05-26T08:34:35.695Z,23.39
2019-05-26T08:35:35.707Z,23.39
2019-05-26T08:36:35.702Z,23.51
2019-05-26T08:37:35.677Z,23.58
2019-05-26T08:38:35.679Z,23.73
2019-05-26T08:39:35.671Z,23.73
2019-05-26T08:40:35.662Z,24.00
2019-05-26T08:41:35.664Z,24.06
2019-05-26T08:42:44.152Z,24.22
2019-05-26T08:43:35.716Z,24.43
2019-05-26T08:44:35.642Z,24.63
2019-05-26T08:45:35.817Z,24.63
2019-05-26T08:46:35.662Z,24.78
2019-05-26T08:47:35.625Z,24.89
2019-05-26T08:48:35.627Z,24.96
2019-05-26T08:49:35.616Z,25.19
2019-05-26T08:50:35.617Z,25.37
2019-05-26T08:51:35.618Z,25.55
2019-05-26T08:52:35.611Z,25.77
2019-05-26T08:53:35.605Z,25.91
2019-05-26T08:54:35.601Z,25.98
2019-05-26T08:55:35.598Z,25.98
2019-05-26T08:56:35.595Z,26.13
2019-05-26T08:57:35.591Z,26.18
2019-05-26T08:58:35.583Z,26.15
2019-05-26T08:59:35.585Z,26.04
2019-05-26T09:00:35.586Z,26.13
2019-05-26T09:01:35.575Z,26.13
2019-05-26T09:02:35.571Z,26.27
2019-05-26T09:03:35.569Z,26.31
2019-05-26T09:04:35.564Z,26.34
2019-05-26T09:05:35.560Z,26.41
2019-05-26T09:06:35.558Z,26.45
2019-05-26T09:07:35.553Z,26.42
2019-05-26T09:08:35.550Z,26.36
2019-05-26T09:09:35.589Z,26.29
2019-05-26T09:10:35.533Z,26.15
2019-05-26T09:11:35.539Z,26.10
2019-05-26T09:12:35.526Z,25.99
2019-05-26T09:13:35.567Z,26.08
2019-05-26T09:14:35.518Z,26.18
2019-05-26T09:15:35.635Z,26.18
2019-05-26T09:16:35.515Z,26.10
2019-05-26T09:17:35.571Z,26.19
2019-05-26T09:18:35.511Z,26.13
2019-05-26T09:19:35.525Z,25.99
2019-05-26T09:20:35.566Z,26.15
2019-05-26T09:21:35.495Z,26.19
2019-05-26T09:22:35.743Z,26.34
2019-05-26T09:23:35.493Z,26.51
2019-05-26T09:24:35.481Z,26.61
2019-05-26T09:25:35.481Z,26.67
2019-05-26T09:26:35.491Z,26.64
2019-05-26T09:27:35.468Z,26.76
2019-05-26T09:28:35.464Z,26.85
2019-05-26T09:29:35.464Z,26.82
2019-05-26T09:30:35.458Z,26.79
2019-05-26T09:31:35.527Z,26.78
2019-05-26T09:32:35.461Z,26.78
2019-05-26T09:33:35.454Z,26.82
2019-05-26T09:34:35.447Z,26.86
2019-05-26T09:35:35.436Z,26.93
2019-05-26T09:36:35.432Z,26.93
2019-05-26T09:37:35.429Z,27.05
2019-05-26T09:38:35.429Z,27.15
2019-05-26T09:39:35.578Z,27.25
2019-05-26T09:40:35.429Z,27.16
2019-05-26T09:41:35.429Z,27.29
2019-05-26T09:42:35.415Z,27.33
2019-05-26T09:43:35.417Z,27.41
2019-05-26T09:44:35.409Z,27.45
2019-05-26T09:45:35.421Z,27.45
2019-05-26T09:46:35.403Z,27.50
2019-05-26T09:47:35.395Z,27.45
2019-05-26T09:48:35.399Z,27.48
2019-05-26T09:49:35.397Z,27.40
2019-05-26T09:50:35.404Z,27.47
2019-05-26T09:51:35.402Z,27.45
2019-05-26T09:52:35.376Z,27.40
2019-05-26T09:53:35.392Z,27.44
2019-05-26T09:54:35.374Z,27.37
2019-05-26T09:55:35.374Z,27.38
2019-05-26T09:56:35.369Z,27.34
2019-05-26T09:57:35.367Z,27.25
2019-05-26T09:58:35.377Z,27.29
2019-05-26T09:59:35.359Z,27.37
2019-05-26T10:00:35.366Z,27.44
2019-05-26T10:01:35.353Z,27.57
2019-05-26T10:02:35.350Z,27.57
2019-05-26T10:03:35.358Z,27.55
2019-05-26T10:04:35.346Z,27.43
2019-05-26T10:05:35.410Z,27.43
2019-05-26T10:06:35.341Z,27.52
2019-05-26T10:07:35.352Z,27.41
2019-05-26T10:08:35.332Z,27.40
2019-05-26T10:09:35.330Z,27.34
2019-05-26T10:10:35.332Z,27.38
2019-05-26T10:11:35.320Z,27.37
2019-05-26T10:12:35.323Z,27.40
2019-05-26T10:13:35.331Z,27.43
2019-05-26T10:14:35.331Z,27.43
2019-05-26T10:15:35.312Z,27.44
2019-05-26T10:16:35.324Z,27.28
2019-05-26T10:17:35.303Z,27.16
2019-05-26T10:18:35.292Z,27.15
2019-05-26T10:19:35.305Z,27.03
2019-05-26T10:20:35.296Z,27.15
2019-05-26T10:21:35.285Z,27.07
2019-05-26T10:22:35.298Z,27.20
2019-05-26T10:23:35.298Z,27.26
2019-05-26T10:24:35.277Z,27.25
2019-05-26T10:25:35.423Z,27.41
2019-05-26T10:26:35.269Z,27.40
2019-05-26T10:27:35.336Z,27.52
2019-05-26T10:28:35.263Z,27.47
2019-05-26T10:29:35.269Z,27.45
2019-05-26T10:30:35.263Z,27.47
2019-05-26T10:31:35.255Z,27.44
2019-05-26T10:32:35.609Z,27.55
2019-05-26T10:33:35.262Z,27.60
2019-05-26T10:34:35.267Z,27.58
2019-05-26T10:35:35.355Z,27.67
2019-05-26T10:36:35.233Z,27.63
2019-05-26T10:37:35.276Z,27.63
2019-05-26T10:38:35.249Z,27.68
2019-05-26T10:39:35.230Z,27.75
2019-05-26T10:40:35.227Z,27.83
2019-05-26T10:41:35.217Z,27.88
2019-05-26T10:42:35.277Z,28.03
2019-05-26T10:43:46.773Z,28.13
2019-05-26T10:44:35.243Z,28.35
2019-05-26T10:45:35.217Z,28.59
2019-05-26T10:46:35.209Z,28.72
2019-05-26T10:47:35.207Z,28.96
2019-05-26T10:48:35.221Z,29.24
2019-05-26T10:49:35.204Z,29.24
2019-05-26T10:50:35.223Z,29.32
2019-05-26T10:51:35.202Z,29.47
2019-05-26T10:52:35.209Z,29.62
2019-05-26T10:53:35.198Z,29.79
2019-05-26T10:54:35.195Z,29.84
2019-05-26T10:55:35.186Z,29.79
2019-05-26T10:56:35.186Z,29.81
2019-05-26T10:57:35.186Z,29.52
2019-05-26T10:58:35.186Z,29.24
2019-05-26T10:59:35.198Z,29.02
2019-05-26T11:00:35.179Z,28.86
2019-05-26T11:01:35.180Z,28.75
2019-05-26T11:02:35.175Z,28.57
2019-05-26T11:03:35.174Z,28.53
2019-05-26T11:04:35.171Z,28.56
2019-05-26T11:05:35.169Z,28.65
2019-05-26T11:06:35.185Z,28.68
2019-05-26T11:07:35.177Z,28.64
2019-05-26T11:08:35.157Z,28.56
2019-05-26T11:09:35.158Z,28.38
2019-05-26T11:10:35.155Z,28.30
2019-05-26T11:11:35.161Z,28.15
2019-05-26T11:12:35.151Z,28.00
2019-05-26T11:13:35.147Z,28.00
2019-05-26T11:14:35.159Z,28.01
2019-05-26T11:15:35.181Z,27.98
2019-05-26T11:16:35.144Z,28.15
2019-05-26T11:17:35.149Z,28.23
2019-05-26T11:18:35.141Z,28.53
2019-05-26T11:19:35.129Z,28.57
2019-05-26T11:20:35.133Z,28.84
2019-05-26T11:21:35.140Z,28.77
2019-05-26T11:22:35.128Z,28.71
2019-05-26T11:23:35.125Z,28.74
2019-05-26T11:24:35.132Z,28.50
2019-05-26T11:25:35.137Z,28.25
2019-05-26T11:26:35.131Z,28.16
2019-05-26T11:27:35.117Z,28.12
2019-05-26T11:28:35.107Z,28.27
2019-05-26T11:29:35.117Z,28.31
2019-05-26T11:30:35.117Z,28.52
2019-05-26T11:31:35.124Z,28.64
2019-05-26T11:32:35.112Z,28.84
2019-05-26T11:33:35.108Z,28.83
2019-05-26T11:34:35.144Z,28.80
2019-05-26T11:35:35.109Z,28.77
2019-05-26T11:36:35.103Z,28.80
2019-05-26T11:37:35.106Z,28.75
2019-05-26T11:38:35.120Z,28.72
2019-05-26T11:39:35.112Z,28.57
2019-05-26T11:40:35.105Z,28.56
2019-05-26T11:41:35.113Z,28.56
2019-05-26T11:42:35.103Z,28.35
2019-05-26T11:43:35.094Z,28.28
2019-05-26T11:44:35.093Z,28.00
2019-05-26T11:45:35.092Z,27.85
2019-05-26T11:46:35.103Z,27.78
2019-05-26T11:47:35.091Z,27.78
2019-05-26T11:48:35.101Z,27.85
2019-05-26T11:49:35.092Z,27.82
2019-05-26T11:50:35.083Z,27.81
2019-05-26T11:51:35.085Z,27.93
2019-05-26T11:52:35.081Z,27.97
2019-05-26T11:53:35.081Z,28.04
2019-05-26T11:54:35.086Z,28.13
2019-05-26T11:55:35.083Z,28.47
2019-05-26T11:56:35.080Z,28.60
2019-05-26T11:57:36.806Z,28.87
2019-05-26T11:58:35.088Z,29.02
2019-05-26T11:59:35.078Z,29.13
2019-05-26T12:00:35.095Z,29.21
2019-05-26T12:01:35.080Z,29.13
2019-05-26T12:02:35.084Z,29.28
2019-05-26T12:03:35.087Z,29.20
2019-05-26T12:04:35.088Z,29.16
2019-05-26T12:05:35.085Z,29.15
2019-05-26T12:06:35.086Z,29.15
2019-05-26T12:07:35.088Z,29.15
2019-05-26T12:08:35.100Z,28.83
2019-05-26T12:09:35.087Z,28.60
2019-05-26T12:10:35.092Z,28.56
2019-05-26T12:11:35.092Z,28.49
2019-05-26T12:12:35.088Z,28.46
2019-05-26T12:13:36.782Z,28.37
2019-05-26T12:14:35.700Z,28.15
2019-05-26T12:15:35.092Z,28.06
2019-05-26T12:16:35.102Z,28.16
2019-05-26T12:17:35.089Z,28.34
2019-05-26T12:18:35.094Z,28.53
2019-05-26T12:19:35.099Z,28.59
2019-05-26T12:20:35.117Z,28.68
2019-05-26T12:21:35.097Z,28.74
2019-05-26T12:22:35.110Z,28.72
2019-05-26T12:23:35.119Z,28.77
2019-05-26T12:24:35.110Z,28.77
2019-05-26T12:25:35.096Z,28.82
2019-05-26T12:26:35.100Z,28.78
2019-05-26T12:27:35.097Z,28.70
2019-05-26T12:28:35.097Z,28.50
2019-05-26T12:29:35.099Z,28.55
2019-05-26T12:30:35.106Z,28.46
2019-05-26T12:31:35.266Z,28.47
2019-05-26T12:32:35.438Z,28.68
2019-05-26T12:33:35.120Z,28.75
2019-05-26T12:34:35.099Z,28.60
2019-05-26T12:35:35.101Z,28.59
2019-05-26T12:36:38.999Z,28.31
2019-05-26T12:37:35.101Z,27.91
2019-05-26T12:38:35.111Z,27.91
2019-05-26T12:39:35.112Z,27.60
2019-05-26T12:40:35.102Z,27.64
2019-05-26T12:41:37.392Z,27.67
2019-05-26T12:42:35.098Z,27.78
2019-05-26T12:43:35.098Z,27.88
2019-05-26T12:44:48.542Z,28.01
2019-05-26T12:45:35.116Z,28.04
2019-05-26T12:46:35.754Z,27.88
2019-05-26T12:47:35.103Z,27.67
2019-05-26T12:48:35.094Z,27.55
2019-05-26T12:49:35.109Z,27.38
2019-05-26T12:50:35.092Z,27.25
2019-05-26T12:51:35.094Z,27.22
2019-05-26T12:52:35.085Z,27.20
2019-05-26T12:53:35.096Z,27.04
2019-05-26T12:54:35.090Z,26.86
2019-05-26T12:55:35.085Z,26.70
2019-05-26T12:56:35.083Z,26.66
2019-05-26T12:57:35.083Z,26.59
2019-05-26T12:58:35.079Z,26.61
2019-05-26T12:59:35.078Z,26.59